createdAt,value
2023-04-02T00:00:48.415Z,989.96
2023-04-02T00:01:48.451Z,989.99
2023-04-02T00:02:49.463Z,990.08
2023-04-02T00:03:48.384Z,990.03
2023-04-02T00:04:48.422Z,990.04
2023-04-02T00:05:48.391Z,990.06
2023-04-02T00:06:48.389Z,990.02
2023-04-02T00:07:48.330Z,990.06
2023-04-02T00:08:48.329Z,990.08
2023-04-02T00:09:49.232Z,990.07
2023-04-02T00:10:48.345Z,990.10
2023-04-02T00:11:48.308Z,990.11
2023-04-02T00:12:48.300Z,990.09
2023-04-02T00:13:48.302Z,990.14
2023-04-02T00:14:48.829Z,990.14
2023-04-02T00:15:48.855Z,990.17
2023-04-02T00:16:48.446Z,990.18
2023-04-02T00:17:48.364Z,990.17
2023-04-02T00:18:48.279Z,990.17
2023-04-02T00:19:49.241Z,990.13
2023-04-02T00:20:48.243Z,990.29
2023-04-02T00:21:48.265Z,990.23
2023-04-02T00:22:48.227Z,990.23
2023-04-02T00:23:48.351Z,990.25
2023-04-02T00:24:48.260Z,990.26
2023-04-02T00:25:48.931Z,990.35
2023-04-02T00:26:48.339Z,990.34
2023-04-02T00:27:48.249Z,990.35
2023-04-02T00:28:48.173Z,990.37
2023-04-02T00:29:48.168Z,990.36
2023-04-02T00:30:48.161Z,990.39
2023-04-02T00:31:48.206Z,990.35
2023-04-02T00:32:48.366Z,990.38
2023-04-02T00:33:48.170Z,990.41
2023-04-02T00:34:48.153Z,990.41
2023-04-02T00:35:48.702Z,990.41
2023-04-02T00:36:48.335Z,990.42
2023-04-02T00:37:48.258Z,990.46
2023-04-02T00:38:48.779Z,990.43
2023-04-02T00:39:48.097Z,990.50
2023-04-02T00:40:48.084Z,990.44
2023-04-02T00:41:48.101Z,990.49
2023-04-02T00:42:48.188Z,990.55
2023-04-02T00:43:48.203Z,990.52
2023-04-02T00:44:48.056Z,990.49
2023-04-02T00:45:48.093Z,990.60
2023-04-02T00:46:48.081Z,990.57
2023-04-02T00:47:48.356Z,990.60
2023-04-02T00:48:48.009Z,990.65
2023-04-02T00:49:49.107Z,990.68
2023-04-02T00:50:48.119Z,990.62
2023-04-02T00:51:48.020Z,990.66
2023-04-02T00:52:48.106Z,990.66
2023-04-02T00:53:48.140Z,990.67
2023-04-02T00:54:48.049Z,990.64
2023-04-02T00:55:47.970Z,990.70
2023-04-02T00:56:47.986Z,990.72
2023-04-02T00:57:48.078Z,990.81
2023-04-02T00:58:47.991Z,990.85
2023-04-02T00:59:47.951Z,990.86
2023-04-02T01:00:47.947Z,990.87
2023-04-02T01:01:48.044Z,990.99
2023-04-02T01:02:47.947Z,990.95
2023-04-02T01:03:47.996Z,991.02
2023-04-02T01:04:47.904Z,991.00
2023-04-02T01:05:47.908Z,991.04
2023-04-02T01:06:47.894Z,991.07
2023-04-02T01:07:47.876Z,991.06
2023-04-02T01:08:47.909Z,991.06
2023-04-02T01:09:47.857Z,991.08
2023-04-02T01:10:48.907Z,991.12
2023-04-02T01:11:47.863Z,991.25
2023-04-02T01:12:47.859Z,991.15
2023-04-02T01:13:47.829Z,991.22
2023-04-02T01:14:47.844Z,991.17
2023-04-02T01:15:48.777Z,991.28
2023-04-02T01:16:47.799Z,991.20
2023-04-02T01:17:47.836Z,991.35
2023-04-02T01:18:47.799Z,991.30
2023-04-02T01:19:47.817Z,991.45
2023-04-02T01:20:47.797Z,991.36
2023-04-02T01:21:47.763Z,991.38
2023-04-02T01:22:47.808Z,991.48
2023-04-02T01:23:47.746Z,991.46
2023-04-02T01:24:47.831Z,991.49
2023-04-02T01:25:47.775Z,991.47
2023-04-02T01:26:47.745Z,991.53
2023-04-02T01:27:47.768Z,991.57
2023-04-02T01:28:47.739Z,991.65
2023-04-02T01:29:47.785Z,991.63
2023-04-02T01:30:48.565Z,991.56
2023-04-02T01:31:47.793Z,991.60
2023-04-02T01:32:47.727Z,991.72
2023-04-02T01:33:47.786Z,991.68
2023-04-02T01:34:47.667Z,991.67
2023-04-02T01:35:47.688Z,991.75
2023-04-02T01:36:47.663Z,991.65
2023-04-02T01:37:47.649Z,991.80
2023-04-02T01:38:47.652Z,991.80
2023-04-02T01:39:47.724Z,991.79
2023-04-02T01:40:47.699Z,991.92
2023-04-02T01:41:47.657Z,991.87
2023-04-02T01:42:47.653Z,991.84
2023-04-02T01:43:48.274Z,991.93
2023-04-02T01:44:47.613Z,992.00
2023-04-02T01:45:47.613Z,991.91
2023-04-02T01:46:47.680Z,991.93
2023-04-02T01:47:47.654Z,991.91
2023-04-02T01:48:47.562Z,992.00
2023-04-02T01:49:47.587Z,992.02
2023-04-02T01:50:47.577Z,992.07
2023-04-02T01:51:47.534Z,992.15
2023-04-02T01:52:47.553Z,992.11
2023-04-02T01:53:47.539Z,992.19
2023-04-02T01:54:47.544Z,992.21
2023-04-02T01:55:47.509Z,992.23
2023-04-02T01:56:47.573Z,992.29
2023-04-02T01:57:47.553Z,992.27
2023-04-02T01:58:47.527Z,992.30
2023-04-02T01:59:47.469Z,992.32
2023-04-02T02:00:48.683Z,992.32
2023-04-02T02:01:47.504Z,992.31
2023-04-02T02:02:47.488Z,992.34
2023-04-02T02:03:47.501Z,992.43
2023-04-02T02:04:47.481Z,992.41
2023-04-02T02:05:47.429Z,992.45
2023-04-02T02:06:48.330Z,992.46
2023-04-02T02:07:47.439Z,992.49
2023-04-02T02:08:47.461Z,992.48
2023-04-02T02:09:47.522Z,992.52
2023-04-02T02:10:47.415Z,992.57
2023-04-02T02:11:48.240Z,992.55
2023-04-02T02:12:47.385Z,992.58
2023-04-02T02:13:47.438Z,992.59
2023-04-02T02:14:47.449Z,992.60
2023-04-02T02:15:47.375Z,992.59
2023-04-02T02:16:47.394Z,992.66
2023-04-02T02:17:47.368Z,992.65
2023-04-02T02:18:47.387Z,992.66
2023-04-02T02:19:47.349Z,992.73
2023-04-02T02:20:47.360Z,992.73
2023-04-02T02:21:47.326Z,992.74
2023-04-02T02:22:47.298Z,992.75
2023-04-02T02:23:47.336Z,992.76
2023-04-02T02:24:47.323Z,992.81
2023-04-02T02:25:47.286Z,992.85
2023-04-02T02:26:47.323Z,992.86
2023-04-02T02:27:47.265Z,992.83
2023-04-02T02:28:47.264Z,992.90
2023-04-02T02:29:48.196Z,992.90
2023-04-02T02:30:47.279Z,992.94
2023-04-02T02:31:47.273Z,992.99
2023-04-02T02:32:47.293Z,992.97
2023-04-02T02:33:47.288Z,992.97
2023-04-02T02:34:47.285Z,993.07
2023-04-02T02:35:47.451Z,992.97
2023-04-02T02:36:47.228Z,993.04
2023-04-02T02:37:47.186Z,993.08
2023-04-02T02:38:47.224Z,993.09
2023-04-02T02:39:47.451Z,993.09
2023-04-02T02:40:47.219Z,993.13
2023-04-02T02:41:47.836Z,993.12
2023-04-02T02:42:47.168Z,993.19
2023-04-02T02:43:47.174Z,993.24
2023-04-02T02:44:47.147Z,993.26
2023-04-02T02:45:47.192Z,993.22
2023-04-02T02:46:47.198Z,993.28
2023-04-02T02:47:47.178Z,993.27
2023-04-02T02:48:47.117Z,993.32
2023-04-02T02:49:48.141Z,993.23
2023-04-02T02:50:47.098Z,993.34
2023-04-02T02:51:47.141Z,993.31
2023-04-02T02:52:47.275Z,993.30
2023-04-02T02:53:47.141Z,993.40
2023-04-02T02:54:47.086Z,993.38
2023-04-02T02:55:47.065Z,993.38
2023-04-02T02:56:47.113Z,993.36
2023-04-02T02:57:47.223Z,993.35
2023-04-02T02:58:47.064Z,993.42
2023-04-02T02:59:47.036Z,993.43
2023-04-02T03:00:47.061Z,993.46
2023-04-02T03:01:47.118Z,993.49
2023-04-02T03:02:47.158Z,993.55
2023-04-02T03:03:47.428Z,993.56
2023-04-02T03:04:47.005Z,993.51
2023-04-02T03:05:47.001Z,993.51
2023-04-02T03:06:46.985Z,993.60
2023-04-02T03:07:47.743Z,993.57
2023-04-02T03:08:47.014Z,993.59
2023-04-02T03:09:46.996Z,993.67
2023-04-02T03:10:46.965Z,993.67
2023-04-02T03:11:47.080Z,993.64
2023-04-02T03:12:46.991Z,993.69
2023-04-02T03:13:46.969Z,993.70
2023-04-02T03:14:46.938Z,993.75
2023-04-02T03:15:47.004Z,993.81
2023-04-02T03:16:46.923Z,993.77
2023-04-02T03:17:47.028Z,993.80
2023-04-02T03:18:46.905Z,993.84
2023-04-02T03:19:46.912Z,993.89
2023-04-02T03:20:47.889Z,993.94
2023-04-02T03:21:46.895Z,993.93
2023-04-02T03:22:46.891Z,994.00
2023-04-02T03:23:46.868Z,993.92
2023-04-02T03:24:46.913Z,994.02
2023-04-02T03:25:46.992Z,994.05
2023-04-02T03:26:46.844Z,994.00
2023-04-02T03:27:46.826Z,994.00
2023-04-02T03:28:46.830Z,994.08
2023-04-02T03:29:46.807Z,994.13
2023-04-02T03:30:47.386Z,994.06
2023-04-02T03:31:46.949Z,994.11
2023-04-02T03:32:46.861Z,994.12
2023-04-02T03:33:46.822Z,994.23
2023-04-02T03:34:46.779Z,994.23
2023-04-02T03:35:47.057Z,994.21
2023-04-02T03:36:46.818Z,994.27
2023-04-02T03:37:46.792Z,994.32
2023-04-02T03:38:46.839Z,994.29
2023-04-02T03:39:46.744Z,994.31
2023-04-02T03:40:46.744Z,994.33
2023-04-02T03:41:46.792Z,994.37
2023-04-02T03:42:46.765Z,994.44
2023-04-02T03:43:46.709Z,994.47
2023-04-02T03:44:46.734Z,994.47
2023-04-02T03:45:46.718Z,994.41
2023-04-02T03:46:47.546Z,994.48
2023-04-02T04:02:55.716Z,995.04
2023-04-02T04:03:55.777Z,995.00
2023-04-02T04:04:55.731Z,995.01
2023-04-02T04:05:55.746Z,995.03
2023-04-02T04:06:55.732Z,995.05
2023-04-02T04:07:56.849Z,995.05
2023-04-02T04:08:56.793Z,995.08
2023-04-02T04:09:56.781Z,995.10
2023-04-02T04:10:57.380Z,995.12
2023-04-02T04:11:57.320Z,995.07
2023-04-02T04:12:56.841Z,995.07
2023-04-02T04:13:57.750Z,995.12
2023-04-02T04:14:56.771Z,995.02
2023-04-02T04:15:57.603Z,995.15
2023-04-02T04:16:56.853Z,995.16
2023-04-02T04:17:57.773Z,995.19
2023-04-02T04:18:56.795Z,995.24
2023-04-02T04:19:56.722Z,995.22
2023-04-02T04:20:56.939Z,995.22
2023-04-02T04:21:57.330Z,995.31
2023-04-02T04:22:56.700Z,995.20
2023-04-02T04:23:56.665Z,995.33
2023-04-02T04:24:57.797Z,995.23
2023-04-02T04:25:56.669Z,995.27
2023-04-02T04:26:56.675Z,995.25
2023-04-02T04:27:56.681Z,995.35
2023-04-02T04:28:56.677Z,995.35
2023-04-02T04:29:56.701Z,995.34
2023-04-02T04:30:56.622Z,995.37
2023-04-02T04:31:56.655Z,995.44
2023-04-02T04:32:56.664Z,995.46
2023-04-02T04:33:57.177Z,995.45
2023-04-02T04:34:56.644Z,995.46
2023-04-02T04:35:56.658Z,995.46
2023-04-02T04:36:56.619Z,995.55
2023-04-02T04:37:56.579Z,995.55
2023-04-02T04:38:57.293Z,995.56
2023-04-02T04:39:56.597Z,995.56
2023-04-02T04:40:56.598Z,995.65
2023-04-02T04:41:56.556Z,995.60
2023-04-02T04:42:56.638Z,995.61
2023-04-02T04:43:56.734Z,995.62
2023-04-02T04:44:56.527Z,995.70
2023-04-02T04:45:57.329Z,995.67
2023-04-02T04:46:56.507Z,995.67
2023-04-02T04:47:56.562Z,995.72
2023-04-02T04:48:56.865Z,995.79
2023-04-02T04:49:57.280Z,995.83
2023-04-02T04:50:56.503Z,995.72
2023-04-02T04:51:56.523Z,995.81
2023-04-02T04:52:56.455Z,995.88
2023-04-02T04:53:56.501Z,995.89
2023-04-02T04:54:57.115Z,995.88
2023-04-02T04:55:59.689Z,995.89
2023-04-02T04:56:57.433Z,995.93
2023-04-02T04:57:56.471Z,996.01
2023-04-02T04:58:56.520Z,996.05
2023-04-02T04:59:56.434Z,996.01
2023-04-02T05:00:56.471Z,996.06
2023-04-02T05:01:56.478Z,995.97
2023-04-02T05:02:56.427Z,996.08
2023-04-02T05:03:56.420Z,996.01
2023-04-02T05:04:56.469Z,996.12
2023-04-02T05:05:56.359Z,996.14
2023-04-02T05:06:56.417Z,996.14
2023-04-02T05:07:57.887Z,996.20
2023-04-02T05:08:56.401Z,996.22
2023-04-02T05:09:56.377Z,996.21
2023-04-02T05:10:56.325Z,996.21
2023-04-02T05:11:56.562Z,996.29
2023-04-02T05:12:56.314Z,996.28
2023-04-02T05:13:56.289Z,996.32
2023-04-02T05:14:56.285Z,996.28
2023-04-02T05:15:56.366Z,996.23
2023-04-02T05:16:56.284Z,996.39
2023-04-02T05:17:56.633Z,996.41
2023-04-02T05:18:56.276Z,996.38
2023-04-02T05:19:56.285Z,996.38
2023-04-02T05:20:56.238Z,996.39
2023-04-02T05:21:56.283Z,996.49
2023-04-02T05:22:57.110Z,996.49
2023-04-02T05:23:56.240Z,996.42
2023-04-02T05:24:56.224Z,996.56
2023-04-02T05:25:56.236Z,996.46
2023-04-02T05:26:56.228Z,996.56
2023-04-02T05:27:56.199Z,996.59
2023-04-02T05:28:56.343Z,996.55
2023-04-02T05:29:56.267Z,996.56
2023-04-02T05:30:56.185Z,996.65
2023-04-02T05:31:56.178Z,996.68
2023-04-02T05:32:56.232Z,996.63
2023-04-02T05:33:56.175Z,996.70
2023-04-02T05:34:56.334Z,996.70
2023-04-02T05:35:56.226Z,996.68
2023-04-02T05:36:56.155Z,996.74
2023-04-02T05:37:56.173Z,996.81
2023-04-02T05:38:56.116Z,996.77
2023-04-02T05:39:56.338Z,996.82
2023-04-02T05:40:56.103Z,996.83
2023-04-02T05:41:56.089Z,996.89
2023-04-02T05:42:56.126Z,996.87
2023-04-02T05:43:56.099Z,996.92
2023-04-02T05:44:56.080Z,996.96
2023-04-02T05:45:56.817Z,996.98
2023-04-02T05:46:56.104Z,997.10
2023-04-02T05:47:56.054Z,997.00
2023-04-02T05:48:56.034Z,997.03
2023-04-02T05:49:56.039Z,997.08
2023-04-02T05:50:56.026Z,997.06
2023-04-02T05:51:57.504Z,997.10
2023-04-02T05:52:57.011Z,997.09
2023-04-02T05:53:56.041Z,997.11
2023-04-02T05:54:56.004Z,997.06
2023-04-02T05:55:55.979Z,997.13
2023-04-02T05:56:55.990Z,997.10
2023-04-02T05:58:13.375Z,997.29
2023-04-02T05:58:58.194Z,997.27
2023-04-02T05:59:55.971Z,997.35
2023-04-02T06:00:56.054Z,997.37
2023-04-02T06:01:56.016Z,997.37
2023-04-02T06:02:56.025Z,997.39
2023-04-02T06:03:56.031Z,997.45
2023-04-02T06:04:55.956Z,997.40
2023-04-02T06:05:55.977Z,997.45
2023-04-02T06:06:55.971Z,997.41
2023-04-02T06:07:56.611Z,997.48
2023-04-02T06:08:55.898Z,997.48
2023-04-02T06:09:55.876Z,997.55
2023-04-02T06:10:55.882Z,997.51
2023-04-02T06:11:55.918Z,997.56
2023-04-02T06:12:55.859Z,997.57
2023-04-02T06:13:56.774Z,997.61
2023-04-02T06:14:55.871Z,997.64
2023-04-02T06:15:55.837Z,997.72
2023-04-02T06:16:55.872Z,997.72
2023-04-02T06:17:55.965Z,997.73
2023-04-02T06:18:55.810Z,997.73
2023-04-02T06:19:55.800Z,997.73
2023-04-02T06:20:55.862Z,997.83
2023-04-02T06:21:55.805Z,997.80
2023-04-02T06:22:55.809Z,997.76
2023-04-02T06:23:55.769Z,997.79
2023-04-02T06:24:55.778Z,997.85
2023-04-02T06:25:55.776Z,997.84
2023-04-02T06:26:55.745Z,997.85
2023-04-02T06:27:55.789Z,997.93
2023-04-02T06:28:55.767Z,997.97
2023-04-02T06:29:55.744Z,997.92
2023-04-02T06:30:56.360Z,997.97
2023-04-02T06:31:55.740Z,997.94
2023-04-02T06:32:55.852Z,997.97
2023-04-02T06:33:55.694Z,997.99
2023-04-02T06:34:55.704Z,998.00
2023-04-02T06:35:56.277Z,998.00
2023-04-02T06:36:56.348Z,998.08
2023-04-02T06:37:55.687Z,998.05
2023-04-02T06:38:55.686Z,998.06
2023-04-02T06:39:55.703Z,998.12
2023-04-02T06:40:58.219Z,998.11
2023-04-02T06:41:56.299Z,998.11
2023-04-02T06:42:55.632Z,998.16
2023-04-02T06:43:55.646Z,998.16
2023-04-02T06:44:55.623Z,998.19
2023-04-02T06:45:55.679Z,998.20
2023-04-02T06:46:55.625Z,998.26
2023-04-02T06:47:55.635Z,998.27
2023-04-02T06:48:56.296Z,998.25
2023-04-02T06:49:55.886Z,998.40
2023-04-02T06:50:55.592Z,998.40
2023-04-02T06:51:55.570Z,998.39
2023-04-02T06:52:55.592Z,998.40
2023-04-02T06:53:56.208Z,998.55
2023-04-02T06:54:55.563Z,998.48
2023-04-02T06:55:55.564Z,998.47
2023-04-02T06:56:55.576Z,998.45
2023-04-02T06:57:55.523Z,998.57
2023-04-02T06:58:55.519Z,998.52
2023-04-02T06:59:55.491Z,998.59
2023-04-02T07:00:55.523Z,998.60
2023-04-02T07:01:57.857Z,998.60
2023-04-02T07:02:55.545Z,998.64
2023-04-02T07:03:59.369Z,998.65
2023-04-02T07:04:55.620Z,998.67
2023-04-02T07:05:55.530Z,998.76
2023-04-02T07:06:55.888Z,998.70
2023-04-02T07:07:55.498Z,998.77
2023-04-02T07:08:55.439Z,998.71
2023-04-02T07:09:57.628Z,998.75
2023-04-02T07:10:55.490Z,998.87
2023-04-02T07:11:56.344Z,998.87
2023-04-02T07:12:55.530Z,998.82
2023-04-02T07:13:55.444Z,998.85
2023-04-02T07:14:55.575Z,998.83
2023-04-02T07:15:57.240Z,998.89
2023-04-02T07:16:59.380Z,998.90
2023-04-02T07:17:57.200Z,998.91
2023-04-02T07:18:55.873Z,998.84
2023-04-02T07:19:55.427Z,998.89
2023-04-02T07:20:55.388Z,998.80
2023-04-02T07:21:56.122Z,998.94
2023-04-02T07:22:55.404Z,998.95
2023-04-02T07:23:57.647Z,998.99
2023-04-02T07:24:57.689Z,999.05
2023-04-02T07:25:57.258Z,999.11
2023-04-02T07:26:57.268Z,999.09
2023-04-02T07:27:55.328Z,999.16
2023-04-02T07:29:00.289Z,999.26
2023-04-02T07:29:55.308Z,999.16
2023-04-02T07:30:58.214Z,999.29
2023-04-02T07:31:56.920Z,999.24
2023-04-02T07:32:55.322Z,999.19
2023-04-02T07:33:55.305Z,999.30
2023-04-02T07:34:56.221Z,999.33
2023-04-02T07:35:55.294Z,999.34
2023-04-02T07:36:55.233Z,999.34
2023-04-02T07:37:55.864Z,999.34
2023-04-02T07:38:55.295Z,999.43
2023-04-02T07:39:55.187Z,999.43
2023-04-02T07:40:55.244Z,999.50
2023-04-02T07:41:55.157Z,999.45
2023-04-02T07:42:55.216Z,999.48
2023-04-02T07:43:55.333Z,999.47
2023-04-02T07:44:55.371Z,999.59
2023-04-02T07:45:55.140Z,999.55
2023-04-02T07:46:55.160Z,999.56
2023-04-02T07:47:55.286Z,999.58
2023-04-02T07:48:55.121Z,999.58
2023-04-02T07:49:55.360Z,999.59
2023-04-02T07:50:55.144Z,999.64
2023-04-02T07:51:55.124Z,999.58
2023-04-02T07:52:55.102Z,999.64
2023-04-02T07:53:55.104Z,999.70
2023-04-02T07:54:55.097Z,999.76
2023-04-02T07:55:55.141Z,999.75
2023-04-02T07:56:55.076Z,999.71
2023-04-02T07:57:55.035Z,999.81
2023-04-02T07:58:55.092Z,999.83
2023-04-02T07:59:55.631Z,999.76
2023-04-02T08:00:55.045Z,999.81
2023-04-02T08:01:55.191Z,999.89
2023-04-02T08:02:55.236Z,999.90
2023-04-02T08:03:55.108Z,999.90
2023-04-02T08:04:55.006Z,999.90
2023-04-02T08:05:55.830Z,999.90
2023-04-02T08:06:56.357Z,999.97
2023-04-02T08:07:55.005Z,1000.03
2023-04-02T08:08:54.982Z,1000.02
2023-04-02T08:09:54.973Z,999.98
2023-04-02T08:10:55.056Z,1000.08
2023-04-02T08:11:54.971Z,1000.14
2023-04-02T08:12:55.799Z,1000.00
2023-04-02T08:13:54.928Z,1000.19
2023-04-02T08:14:54.937Z,1000.20
2023-04-02T08:15:54.920Z,1000.18
2023-04-02T08:16:55.003Z,1000.17
2023-04-02T08:17:55.172Z,1000.24
2023-04-02T08:18:54.920Z,1000.25
2023-04-02T08:19:55.435Z,1000.27
2023-04-02T08:20:55.915Z,1000.38
2023-04-02T08:21:54.996Z,1000.35
2023-04-02T08:22:55.907Z,1000.49
2023-04-02T08:23:54.884Z,1000.38
2023-04-02T08:24:54.889Z,1000.34
2023-04-02T08:25:54.916Z,1000.35
2023-04-02T08:26:54.861Z,1000.49
2023-04-02T08:27:54.879Z,1000.49
2023-04-02T08:28:54.854Z,1000.60
2023-04-02T08:29:54.852Z,1000.58
2023-04-02T08:30:54.860Z,1000.63
2023-04-02T08:31:54.834Z,1000.59
2023-04-02T08:32:54.862Z,1000.68
2023-04-02T08:33:55.371Z,1000.69
2023-04-02T08:34:54.808Z,1000.71
2023-04-02T08:35:54.839Z,1000.71
2023-04-02T08:36:54.772Z,1000.72
2023-04-02T08:37:54.807Z,1000.81
2023-04-02T08:38:54.809Z,1000.83
2023-04-02T08:39:54.833Z,1000.87
2023-04-02T08:40:54.760Z,1000.78
2023-04-02T08:41:55.032Z,1000.83
2023-04-02T08:42:54.807Z,1000.89
2023-04-02T08:43:54.771Z,1000.90
2023-04-02T08:44:55.071Z,1000.89
2023-04-02T08:45:54.838Z,1000.95
2023-04-02T08:46:54.702Z,1000.98
2023-04-02T08:47:54.805Z,1000.93
2023-04-02T08:48:54.801Z,1000.97
2023-04-02T08:49:54.640Z,1000.95
2023-04-02T08:50:54.894Z,1000.99
2023-04-02T08:51:54.700Z,1001.01
2023-04-02T08:52:54.684Z,1000.98
2023-04-02T08:53:55.172Z,1001.03
2023-04-02T08:54:54.658Z,1001.01
2023-04-02T08:55:54.855Z,1000.99
2023-04-02T08:56:54.649Z,1001.05
2023-04-02T08:57:54.654Z,1001.15
2023-04-02T08:58:54.656Z,1001.10
2023-04-02T08:59:54.634Z,1001.12
2023-04-02T09:00:54.591Z,1001.13
2023-04-02T09:01:55.408Z,1001.16
2023-04-02T09:02:54.630Z,1001.23
2023-04-02T09:03:54.598Z,1001.18
2023-04-02T09:04:54.622Z,1001.15
2023-04-02T09:05:54.551Z,1001.25
2023-04-02T09:06:54.572Z,1001.25
2023-04-02T09:07:54.580Z,1001.20
2023-04-02T09:08:54.580Z,1001.21
2023-04-02T09:09:54.530Z,1001.31
2023-04-02T09:10:54.553Z,1001.23
2023-04-02T09:11:54.519Z,1001.32
2023-04-02T09:12:54.503Z,1001.29
2023-04-02T09:13:54.569Z,1001.25
2023-04-02T09:14:54.480Z,1001.27
2023-04-02T09:15:54.525Z,1001.24
2023-04-02T09:16:54.526Z,1001.29
2023-04-02T09:17:55.371Z,1001.32
2023-04-02T09:18:54.663Z,1001.42
2023-04-02T09:19:54.447Z,1001.32
2023-04-02T09:20:54.444Z,1001.38
2023-04-02T09:21:54.486Z,1001.39
2023-04-02T09:22:54.429Z,1001.38
2023-04-02T09:23:55.149Z,1001.50
2023-04-02T09:24:54.413Z,1001.52
2023-04-02T09:26:03.666Z,1001.45
2023-04-02T09:26:56.417Z,1001.45
2023-04-02T09:27:54.412Z,1001.57
2023-04-02T09:28:54.438Z,1001.61
2023-04-02T09:29:54.576Z,1001.62
2023-04-02T09:30:54.425Z,1001.63
2023-04-02T09:31:54.428Z,1001.62
2023-04-02T09:32:54.417Z,1001.68
2023-04-02T09:33:54.398Z,1001.67
2023-04-02T09:34:54.352Z,1001.68
2023-04-02T09:35:54.405Z,1001.89
2023-04-02T09:36:54.461Z,1001.67
2023-04-02T09:37:54.336Z,1001.74
2023-04-02T09:38:54.392Z,1001.72
2023-04-02T09:39:54.321Z,1001.76
2023-04-02T09:40:54.302Z,1001.79
2023-04-02T09:42:04.957Z,1001.82
2023-04-02T09:42:56.267Z,1001.90
2023-04-02T09:43:54.272Z,1001.89
2023-04-02T09:44:54.248Z,1001.90
2023-04-02T09:45:54.387Z,1001.85
2023-04-02T09:46:54.917Z,1001.80
2023-04-02T09:47:54.287Z,1001.80
2023-04-02T09:48:54.248Z,1001.79
2023-04-02T09:49:54.258Z,1001.84
2023-04-02T09:50:54.229Z,1001.77
2023-04-02T09:51:54.569Z,1001.86
2023-04-02T09:52:54.226Z,1001.81
2023-04-02T09:53:54.206Z,1001.80
2023-04-02T09:54:54.200Z,1001.77
2023-04-02T09:55:54.183Z,1001.83
2023-04-02T09:56:54.841Z,1001.90
2023-04-02T09:57:54.208Z,1001.88
2023-04-02T09:58:54.193Z,1001.93
2023-04-02T09:59:54.145Z,1001.99
2023-04-02T10:00:54.220Z,1001.94
2023-04-02T10:01:54.127Z,1001.98
2023-04-02T10:02:54.248Z,1002.01
2023-04-02T10:03:54.146Z,1001.83
2023-04-02T10:04:54.223Z,1002.05
2023-04-02T10:05:54.135Z,1002.17
2023-04-02T10:06:54.121Z,1002.09
2023-04-02T10:07:54.088Z,1002.04
2023-04-02T10:08:54.149Z,1002.09
2023-04-02T10:09:54.085Z,1002.16
2023-04-02T10:10:54.091Z,1002.21
2023-04-02T10:11:54.087Z,1002.24
2023-04-02T10:12:54.043Z,1002.16
2023-04-02T10:13:54.072Z,1002.26
2023-04-02T10:14:54.852Z,1002.31
2023-04-02T10:15:54.028Z,1002.32
2023-04-02T10:16:54.058Z,1002.38
2023-04-02T10:17:54.068Z,1002.41
2023-04-02T10:18:53.995Z,1002.41
2023-04-02T10:19:54.651Z,1002.41
2023-04-02T10:20:54.012Z,1002.47
2023-04-02T10:21:54.040Z,1002.54
2023-04-02T10:22:53.964Z,1002.50
2023-04-02T10:23:53.993Z,1002.47
2023-04-02T10:24:53.984Z,1002.46
2023-04-02T10:25:53.933Z,1002.50
2023-04-02T10:26:54.078Z,1002.59
2023-04-02T10:27:53.961Z,1002.42
2023-04-02T10:28:54.909Z,1002.69
2023-04-02T10:29:53.923Z,1002.82
2023-04-02T10:30:54.022Z,1002.61
2023-04-02T10:31:53.991Z,1002.72
2023-04-02T10:32:53.964Z,1002.72
2023-04-02T10:33:53.910Z,1002.74
2023-04-02T10:34:53.901Z,1002.73
2023-04-02T10:35:53.997Z,1002.77
2023-04-02T10:37:30.300Z,1002.81
2023-04-02T10:38:26.840Z,1002.82
2023-04-02T10:39:26.309Z,1002.84
2023-04-02T10:40:26.457Z,1002.80
2023-04-02T10:41:26.853Z,1002.82
2023-04-02T10:42:26.962Z,1002.88
2023-04-02T10:42:53.895Z,1002.82
2023-04-02T10:44:26.646Z,1002.98
2023-04-02T10:44:53.818Z,1003.03
2023-04-02T10:45:53.896Z,1002.86
2023-04-02T10:46:53.856Z,1002.89
2023-04-02T10:47:53.820Z,1002.97
2023-04-02T10:48:53.788Z,1002.75
2023-04-02T10:49:53.848Z,1002.83
2023-04-02T10:50:53.820Z,1002.91
2023-04-02T10:51:53.801Z,1002.94
2023-04-02T10:52:55.501Z,1003.01
2023-04-02T10:53:53.735Z,1003.03
2023-04-02T10:54:53.852Z,1003.05
2023-04-02T10:55:55.069Z,1003.00
2023-04-02T10:56:53.823Z,1003.06
2023-04-02T10:57:53.873Z,1003.02
2023-04-02T10:58:55.561Z,1003.08
2023-04-02T10:59:54.566Z,1003.12
2023-04-02T11:00:55.352Z,1002.97
2023-04-02T11:01:53.839Z,1003.10
2023-04-02T11:02:53.807Z,1003.09
2023-04-02T11:03:53.753Z,1003.05
2023-04-02T11:04:57.071Z,1003.09
2023-04-02T11:05:53.690Z,1003.07
2023-04-02T11:07:07.307Z,1003.07
2023-04-02T11:07:55.672Z,1003.11
2023-04-02T11:08:53.628Z,1003.13
2023-04-02T11:09:53.655Z,1003.05
2023-04-02T11:10:54.574Z,1003.14
2023-04-02T11:11:54.444Z,1003.15
2023-04-02T11:12:53.664Z,1003.22
2023-04-02T11:13:53.693Z,1003.15
2023-04-02T11:14:53.609Z,1003.17
2023-04-02T11:15:55.363Z,1003.27
2023-04-02T11:16:53.588Z,1003.12
2023-04-02T11:17:54.576Z,1003.30
2023-04-02T11:18:53.596Z,1003.27
2023-04-02T11:19:53.565Z,1003.28
2023-04-02T11:20:53.571Z,1003.23
2023-04-02T11:21:59.711Z,1003.30
2023-04-02T11:22:55.570Z,1003.27
2023-04-02T11:23:53.554Z,1003.31
2023-04-02T11:24:53.548Z,1003.35
2023-04-02T11:25:53.496Z,1003.29
2023-04-02T11:26:54.344Z,1003.35
2023-04-02T11:27:54.079Z,1003.32
2023-04-02T11:28:53.586Z,1003.34
2023-04-02T11:29:53.557Z,1003.34
2023-04-02T11:30:53.470Z,1003.34
2023-04-02T11:31:53.515Z,1003.44
2023-04-02T11:32:53.668Z,1003.45
2023-04-02T11:33:53.444Z,1003.44
2023-04-02T11:35:05.056Z,1003.52
2023-04-02T11:35:55.469Z,1003.58
2023-04-02T11:36:53.481Z,1003.53
2023-04-02T11:37:53.430Z,1003.53
2023-04-02T11:38:54.961Z,1003.57
2023-04-02T11:39:53.471Z,1003.52
2023-04-02T11:40:53.423Z,1003.61
2023-04-02T11:41:53.432Z,1003.63
2023-04-02T11:42:53.390Z,1003.62
2023-04-02T11:43:53.410Z,1003.70
2023-04-02T11:44:53.385Z,1003.81
2023-04-02T11:45:53.755Z,1003.78
2023-04-02T11:46:53.444Z,1003.85
2023-04-02T11:47:53.406Z,1003.81
2023-04-02T11:48:53.351Z,1003.83
2023-04-02T11:49:53.338Z,1003.97
2023-04-02T11:50:53.567Z,1003.81
2023-04-02T11:52:02.314Z,1003.94
2023-04-02T11:52:55.342Z,1003.98
2023-04-02T11:53:53.295Z,1003.95
2023-04-02T11:54:53.301Z,1003.94
2023-04-02T11:55:54.085Z,1004.01
2023-04-02T11:56:53.403Z,1003.98
2023-04-02T11:57:53.297Z,1004.00
2023-04-02T11:58:53.281Z,1004.03
2023-04-02T11:59:54.068Z,1004.08
2023-04-02T12:00:53.962Z,1003.98
2023-04-02T12:01:53.313Z,1004.04
2023-04-02T12:02:53.337Z,1004.07
2023-04-02T12:03:53.270Z,1004.16
2023-04-02T12:04:53.252Z,1004.12
2023-04-02T12:05:53.225Z,1004.10
2023-04-02T12:06:53.237Z,1004.10
2023-04-02T12:07:53.281Z,1004.10
2023-04-02T12:08:57.866Z,1004.11
2023-04-02T12:09:56.116Z,1004.07
2023-04-02T12:10:53.205Z,1004.20
2023-04-02T12:11:53.152Z,1004.18
2023-04-02T12:12:53.162Z,1004.15
2023-04-02T12:13:54.046Z,1004.27
2023-04-02T12:14:53.122Z,1004.13
2023-04-02T12:15:53.198Z,1004.22
2023-04-02T12:16:53.170Z,1004.25
2023-04-02T12:17:53.146Z,1004.22
2023-04-02T12:18:53.225Z,1004.33
2023-04-02T12:19:53.152Z,1004.36
2023-04-02T12:20:53.124Z,1004.38
2023-04-02T12:21:53.086Z,1004.34
2023-04-02T12:22:54.160Z,1004.45
2023-04-02T12:23:53.775Z,1004.47
2023-04-02T12:24:53.092Z,1004.41
2023-04-02T12:25:53.077Z,1004.40
2023-04-02T12:26:53.103Z,1004.43
2023-04-02T12:27:53.037Z,1004.53
2023-04-02T12:28:53.862Z,1004.63
2023-04-02T12:29:53.074Z,1004.71
2023-04-02T12:30:54.087Z,1004.57
2023-04-02T12:31:53.041Z,1004.57
2023-04-02T12:32:53.041Z,1004.66
2023-04-02T12:33:53.034Z,1004.70
2023-04-02T12:34:53.084Z,1004.59
2023-04-02T12:35:54.586Z,1004.62